ADDS METAR Data INFO
IDs: Format: Raw Decoded Include TAF

Data at: 1951 UTC 14 Aug 2018

KROC 141854Z 24004KT 9SM FEW013 SCT075 BKN110 OVC180 23/22 A2987 RMK AO2 LTG DSNT NE AND E RAE49 SLP115 P0006 T02330222 $
KROC 141754Z 27005KT 6SM -RA BR FEW010 BKN075 OVC090 23/21 A2988 RMK AO2 LTG DSNT NE RAB40 SLP120 P0001 60072 T02280211 10228 20206 55006 $
KROC 141654Z 28008KT 10SM FEW010 SCT075 OVC100 22/21 A2988 RMK AO2 LTG DSNT NE AND E RAE32 SLP120 P0004 T02170211 $
KROC 141621Z 28008KT 5SM -RA BR FEW007 BKN065 OVC100 21/21 A2989 RMK AO2 LTG DSNT NE P0004 T02110206 $
KROC 141554Z 30008KT 2 1/2SM RA BR FEW007 BKN055 OVC100 21/20 A2989 RMK AO2 SFC VIS 4 LTG DSNT E SLP123 P0029 T02060200
KROC 141534Z 28010KT 2 1/2SM R04/4500VP6000FT RA BR FEW007 BKN055 OVC100 21/20 A2989 RMK AO2 P0027 T02060200
KROC 141454Z 29010KT 1 1/2SM +RA BR FEW007 BKN080 OVC110 21/20 A2990 RMK AO2 LTG DSNT NE-SE SLP127 P0020 60038 T02060200 58001
KROC 141354Z 26008KT 2 1/2SM RA BR SCT006 BKN046 OVC090 21/21 A2991 RMK AO2 LTG DSNT E SLP129 P0013 T02060206
KROC 141254Z 26006KT 2SM RA BR SCT006 BKN045 OVC100 21/21 A2991 RMK AO2 TSB25E43 SLP130 P0005 T02060206
KROC 141244Z 25006KT 2SM -RA BR SCT006 BKN045 OVC100 21/21 A2992 RMK AO2 TSB25E43 P0004 T02060206
KROC 141225Z 25005KT 2 1/2SM -TSRA BR SCT006 SCT065CB OVC100 21/21 A2992 RMK AO2 LTG DSNT E AND SE TSB25 OCNL LTGCG VC SE TS VC SE MOV SW P0002 T02060206
KROC 141217Z 25004KT 2 1/2SM -RA BR FEW006 SCT065 OVC100 21/21 A2991 RMK AO2 LTG DSNT SE P0001 T02060206
KROC 141154Z 25005KT 2SM -RA BR FEW012 BKN070 OVC120 21/21 A2991 RMK AO2 LTG DSNT E SLP128 P0005 60006 70008 T02060206 10211 20206 53001
KROC 141122Z 25006KT 2 1/2SM RA BR FEW075 BKN100 OVC110 21/20 A2991 RMK AO2 LTG DSNT E P0003 T02060200
KROC 141054Z 22004KT 6SM -RA BR BKN080 OVC095 21/21 A2991 RMK AO2 LTG DSNT E RAB07 SLP128 P0001 T02060206
KROC 140954Z 28005KT 8SM FEW070 OVC100 21/21 A2990 RMK AO2 SLP123 T02060206
KROC 140854Z 25003KT 6SM BR OVC090 21/21 A2990 RMK AO2 SLP126 T02060206 56015
KROC 140754Z 00000KT 9SM FEW006 BKN080 OVC110 21/21 A2991 RMK AO2 SLP129 T02110206
KROC 140654Z 24003KT 6SM BR FEW005 BKN090 OVC110 21/21 A2993 RMK AO2 SLP136 BINOVC T02060206
KROC 140635Z 22003KT 6SM BR FEW005 BKN075 OVC100 21/21 A2994 RMK AO2 T02060206
KROC 140554Z 25004KT 8SM BKN075 OVC100 21/21 A2995 RMK AO2 SLP141 BINOVC 60000 T02060206 10228 20206 58011
KROC 140454Z 00000KT 10SM BKN011 BKN080 OVC110 22/21 A2997 RMK AO2 SLP147 T02170211 402560183
KROC 140439Z 00000KT 10SM BKN011 BKN020 OVC120 21/21 A2997 RMK AO2 T02110211
KROC 140354Z 00000KT 10SM FEW022 FEW030 BKN110 OVC250 22/21 A2997 RMK AO2 SLP147 T02170211
KROC 140320Z 00000KT 10SM FEW022 FEW030 OVC110 22/22 A2997 RMK AO2 T02170217
KROC 140254Z 00000KT 10SM BKN014 BKN022 OVC110 22/22 A2998 RMK AO2 SLP152 60000 T02220217 50001
KROC 140251Z 00000KT 10SM BKN013 OVC110 22/22 A2998 RMK AO2
KROC 140154Z 00000KT 10SM FEW040 BKN110 OVC150 22/21 A2999 RMK AO2 SLP155 T02170211
KROC 140054Z 00000KT 10SM FEW042 BKN110 OVC150 22/22 A2998 RMK AO2 RAB2358E16 SLP152 P0000 T02170217
KROC 132354Z 00000KT 10SM FEW040 BKN110 OVC150 23/21 A2998 RMK AO2 SLP154 60002 T02280211 10244 20222 55006
KROC 132254Z 36005KT 10SM FEW042 FEW065 BKN110 OVC150 23/21 A2997 RMK AO2 RAE48 SLP150 P0001 T02330211
KROC 132154Z 07004KT 10SM -RA FEW040 SCT090 OVC110 23/21 A2999 RMK AO2 RAE2059B16 SLP155 P0001 T02330206
KROC 132054Z 00000KT 10SM -RA FEW049 FEW080 OVC100 24/21 A3000 RMK AO2 RAB29 SLP160 P0000 60000 T02440206 58014
KROC 131954Z 06005KT 10SM FEW030 FEW065 BKN100 OVC200 24/21 A3002 RMK AO2 RAE29 SLP165 P0000 T02390211
KROC 131854Z 03008KT 10SM -RA FEW028 SCT065 BKN110 OVC180 24/21 A3003 RMK AO2 TSB01E42 SLP171 TS DSPTD P0000 T02390211
KROC 131843Z 03009KT 10SM -RA FEW028 SCT065 OVC110 23/21 A3004 RMK AO2 TSB01E42 DSPTD P0000 T02330211
KROC 131801Z 02008KT 10SM -TSRA FEW031CB BKN100 OVC200 24/21 A3004 RMK AO2 TSB01 OCNL LTGICCG VC S MOV W TS VC S MOV W P0000 T02390206
KROC 131754Z 03008KT 10SM -RA FEW031 BKN110 OVC200 24/21 A3004 RMK AO2 RAB32 SLP174 P0000 60000 T02390211 10256 20194 58012
KROC 131654Z 36007KT 10SM FEW025 SCT031 BKN110 OVC200 25/21 A3005 RMK AO2 RAB25E38 SLP176 P0000 T02500211
KROC 131554Z 02004KT 10SM FEW019 SCT120 OVC200 26/21 A3007 RMK AO2 SLP182 T02560206
KROC 131454Z 00000KT 10SM FEW020 FEW060 SCT120 OVC200 24/21 A3008 RMK AO2 SLP185 T02440211 56001
KROC 131354Z 22004KT 10SM FEW060 BKN120 OVC200 23/21 A3008 RMK AO2 SLP186 T02280211
KROC 131254Z 00000KT 10SM FEW060 SCT140 OVC200 22/19 A3007 RMK AO2 SLP182 T02170194
KROC 131154Z 25004KT 10SM SCT100 BKN140 BKN240 19/19 A3008 RMK AO2 SLP186 T01940189 10194 20183 50002
KROC 131054Z 26004KT 10SM FEW080 BKN130 BKN240 19/18 A3009 RMK AO2 SLP187 T01890183
KROC 130954Z 24004KT 10SM SCT100 BKN140 BKN240 19/18 A3007 RMK AO2 SLP184 T01890178
KROC 130854Z 25004KT 10SM BKN130 BKN240 18/18 A3007 RMK AO2 SLP184 T01830178 56008
KROC 130754Z 23004KT 10SM FEW080 SCT120 BKN240 18/18 A3008 RMK AO2 SLP186 T01830183